Time;durP1;ratioP1;P1;durP2;ratioP2;P2;SDS_P1;SDS_P2;PMS_P1;PMS_P2;Temp;Humidity;BMP_temperature;BMP_pressure;BME280_temperature;BME280_humidity;BME280_pressure;Samples;Min_cycle;Max_cycle;Signal;HPM_P1;HPM_P2
2023/08/16 00:00:14;;;;;;;;;28.50;26.50;;;;;25.57;46.30;101042.30;109967;1250;19794;-75
2023/08/16 00:03:00;;;;;;;;;26.67;25.00;;;;;25.58;45.95;101043.54;109971;1250;22488;-75
2023/08/16 00:05:26;;;;;;;;;27.00;25.00;;;;;25.56;46.05;101041.98;109987;1251;22133;-73
2023/08/16 00:07:52;;;;;;;;;26.00;23.00;;;;;25.56;46.33;101047.80;109990;1260;20130;-75
2023/08/16 00:10:19;;;;;;;;;27.00;25.00;;;;;25.55;46.18;101052.14;110019;1266;19014;-74
2023/08/16 00:12:45;;;;;;;;;26.00;25.00;;;;;25.55;46.10;101055.54;110044;1251;21640;-75
2023/08/16 00:15:11;;;;;;;;;23.00;22.00;;;;;25.54;46.07;101051.88;110067;1266;22258;-74
2023/08/16 00:17:37;;;;;;;;;25.00;24.00;;;;;25.54;45.93;101052.38;110079;1250;20176;-74
2023/08/16 00:20:04;;;;;;;;;27.00;26.00;;;;;25.54;45.89;101053.68;109963;1251;20744;-75
2023/08/16 00:22:30;;;;;;;;;25.00;23.00;;;;;25.53;46.09;101053.42;110007;1259;20006;-76
2023/08/16 00:24:56;;;;;;;;;27.00;25.33;;;;;25.52;45.99;101055.24;109969;1251;22175;-76
2023/08/16 00:27:22;;;;;;;;;26.00;25.00;;;;;25.51;46.06;101059.88;110080;1250;20755;-74
2023/08/16 00:29:48;;;;;;;;;26.00;24.00;;;;;25.49;46.11;101058.14;110068;1266;18550;-74
2023/08/16 00:32:14;;;;;;;;;29.00;26.00;;;;;25.49;45.98;101057.14;110047;1261;18661;-74
2023/08/16 00:34:40;;;;;;;;;25.00;25.00;;;;;25.51;45.94;101052.74;109971;1259;20070;-75
2023/08/16 00:37:06;;;;;;;;;26.50;23.00;;;;;25.50;46.04;101052.80;109986;1250;19953;-75
2023/08/16 00:39:33;;;;;;;;;27.00;24.50;;;;;25.51;45.91;101051.10;109952;1250;20346;-74
2023/08/16 00:41:59;;;;;;;;;31.00;28.00;;;;;25.52;46.06;101049.27;109982;1266;22126;-75
2023/08/16 00:44:25;;;;;;;;;21.50;20.50;;;;;25.52;45.79;101049.92;110003;1266;19911;-75
2023/08/16 00:46:51;;;;;;;;;25.00;21.00;;;;;25.52;45.93;101048.24;109993;1250;20068;-75
2023/08/16 00:49:17;;;;;;;;;28.00;26.00;;;;;25.49;45.88;101048.20;109961;1260;20575;-74
2023/08/16 00:51:43;;;;;;;;;29.00;27.50;;;;;25.51;45.79;101044.84;109983;1266;18629;-75
2023/08/16 00:54:09;;;;;;;;;27.50;27.00;;;;;25.49;45.96;101046.77;110004;1250;22194;-74
2023/08/16 00:56:35;;;;;;;;;29.50;27.00;;;;;25.48;45.67;101052.77;109976;1250;21997;-75
2023/08/16 00:59:01;;;;;;;;;32.00;30.67;;;;;25.48;45.77;101051.23;109970;1265;18577;-75
2023/08/16 01:01:27;;;;;;;;;23.00;22.00;;;;;25.48;45.99;101051.63;110032;1266;18731;-75
2023/08/16 01:03:53;;;;;;;;;27.00;24.00;;;;;25.46;45.80;101048.63;109981;1266;19084;-76
2023/08/16 01:06:19;;;;;;;;;28.50;28.50;;;;;25.45;46.21;101047.88;110007;1250;20096;-73
2023/08/16 01:08:45;;;;;;;;;26.50;26.00;;;;;25.44;45.99;101041.59;110044;1251;20101;-73
2023/08/16 01:11:11;;;;;;;;;26.00;24.50;;;;;25.45;46.26;101040.70;109981;1251;20801;-73
2023/08/16 01:13:37;;;;;;;;;28.00;27.00;;;;;25.44;46.03;101043.02;109968;1250;22705;-74
2023/08/16 01:16:07;;;;;;;;;23.50;23.00;;;;;25.43;46.34;101043.47;109979;1265;18760;-74
2023/08/16 01:18:33;;;;;;;;;25.50;24.50;;;;;25.43;46.23;101042.20;109977;1251;20733;-74
2023/08/16 01:20:59;;;;;;;;;25.50;23.50;;;;;25.41;46.33;101034.60;110008;1250;20215;-74
2023/08/16 01:23:25;;;;;;;;;30.00;28.00;;;;;25.39;46.45;101035.45;110034;1251;21124;-73
2023/08/16 01:25:51;;;;;;;;;30.00;26.00;;;;;25.40;46.54;101029.09;110021;1250;19644;-75
2023/08/16 01:28:17;;;;;;;;;26.00;26.00;;;;;25.40;46.50;101032.64;109956;1266;22300;-75
2023/08/16 01:30:45;;;;;;;;;28.00;26.00;;;;;25.39;46.72;101035.84;109955;1251;22335;-75
2023/08/16 01:33:11;;;;;;;;;28.00;26.00;;;;;25.38;46.71;101035.30;109965;1266;22678;-75
2023/08/16 01:35:37;;;;;;;;;30.50;27.50;;;;;25.37;47.00;101034.16;109953;1266;19613;-75
2023/08/16 01:38:03;;;;;;;;;28.00;26.00;;;;;25.37;46.96;101036.80;109974;1250;20098;-75
2023/08/16 01:40:29;;;;;;;;;30.50;29.50;;;;;25.36;47.00;101038.34;109992;1250;20776;-75
2023/08/16 01:42:55;;;;;;;;;31.00;28.00;;;;;25.35;47.27;101040.77;110042;1266;19050;-75
2023/08/16 01:45:21;;;;;;;;;33.00;28.00;;;;;25.35;47.24;101039.89;109979;1259;18866;-75
2023/08/16 01:47:47;;;;;;;;;27.00;26.00;;;;;25.34;47.52;101036.79;109980;1250;22959;-75
2023/08/16 01:50:13;;;;;;;;;30.50;29.50;;;;;25.32;47.58;101033.63;109970;1266;18820;-75
2023/08/16 01:52:39;;;;;;;;;35.00;31.00;;;;;25.28;47.71;101032.91;109964;1251;21590;-75
2023/08/16 01:55:05;;;;;;;;;31.00;31.00;;;;;25.28;47.76;101031.65;109976;1266;19103;-75
2023/08/16 01:57:31;;;;;;;;;26.50;25.50;;;;;25.26;47.84;101033.82;110000;1250;19774;-75
2023/08/16 01:59:57;;;;;;;;;33.00;30.00;;;;;25.24;48.10;101033.02;110006;1250;20197;-76
2023/08/16 02:02:24;;;;;;;;;27.50;26.50;;;;;25.24;48.13;101031.82;109978;1265;19433;-75
2023/08/16 02:04:50;;;;;;;;;31.00;29.00;;;;;25.24;48.04;101033.14;110001;1251;22031;-75
2023/08/16 02:07:16;;;;;;;;;32.00;30.50;;;;;25.22;48.48;101032.95;109955;1266;22581;-75
2023/08/16 02:09:42;;;;;;;;;32.00;29.00;;;;;25.21;48.37;101034.20;109971;1250;20482;-75
2023/08/16 02:12:08;;;;;;;;;27.00;26.00;;;;;25.19;48.46;101029.35;109958;1266;18662;-76
2023/08/16 02:14:34;;;;;;;;;32.00;30.00;;;;;25.19;48.58;101031.98;109958;1266;18501;-75
2023/08/16 02:17:01;;;;;;;;;30.00;27.00;;;;;25.17;48.64;101032.11;110026;1250;20729;-75
2023/08/16 02:19:27;;;;;;;;;31.00;30.00;;;;;25.17;48.51;101033.11;110012;1260;19985;-75
2023/08/16 02:21:53;;;;;;;;;28.00;28.00;;;;;25.14;48.65;101031.77;109998;1266;19140;-76
2023/08/16 02:24:19;;;;;;;;;33.33;32.00;;;;;25.11;48.90;101031.02;109981;1260;22944;-75
2023/08/16 02:26:45;;;;;;;;;33.00;31.00;;;;;25.06;48.75;101030.66;109989;1258;22746;-76
2023/08/16 02:29:11;;;;;;;;;34.00;32.00;;;;;25.05;48.96;101033.80;109998;1250;22736;-77
2023/08/16 02:31:37;;;;;;;;;28.50;25.50;;;;;25.09;48.97;101028.92;109995;1250;19241;-74
2023/08/16 02:34:03;;;;;;;;;30.00;29.00;;;;;25.06;48.88;101030.11;110021;1266;19549;-74
2023/08/16 02:36:29;;;;;;;;;28.00;26.00;;;;;25.05;48.97;101031.98;109995;1266;18747;-74
2023/08/16 02:38:55;;;;;;;;;35.50;30.00;;;;;25.03;48.94;101032.06;109977;1259;19607;-74
2023/08/16 02:41:21;;;;;;;;;33.50;29.50;;;;;25.01;48.84;101027.15;109971;1266;22312;-74
2023/08/16 02:43:47;;;;;;;;;36.00;31.00;;;;;24.96;49.18;101029.12;110029;1266;22772;-75
2023/08/16 02:46:13;;;;;;;;;31.00;28.00;;;;;24.97;49.08;101033.95;109996;1259;22021;-75
2023/08/16 02:48:39;;;;;;;;;28.50;27.50;;;;;24.95;49.21;101034.88;110025;1265;22107;-75
2023/08/16 02:51:05;;;;;;;;;31.00;29.00;;;;;24.97;49.15;101028.14;110046;1250;20096;-75
2023/08/16 02:53:31;;;;;;;;;32.50;30.00;;;;;24.98;49.15;101028.02;109998;1266;22447;-75
2023/08/16 02:55:57;;;;;;;;;30.00;29.00;;;;;24.99;48.86;101029.21;110047;1251;20089;-76
2023/08/16 02:58:23;;;;;;;;;30.50;29.50;;;;;24.98;49.05;101029.93;110064;1259;22769;-76
2023/08/16 03:00:50;;;;;;;;;29.50;28.50;;;;;24.98;48.85;101029.66;110072;1251;21187;-78
2023/08/16 03:03:16;;;;;;;;;30.00;30.00;;;;;24.98;48.91;101028.45;110074;1251;20019;-76
2023/08/16 03:05:42;;;;;;;;;29.50;28.50;;;;;24.98;49.00;101031.52;110093;1250;20384;-78
2023/08/16 03:08:08;;;;;;;;;34.50;31.50;;;;;24.93;49.28;101032.15;110125;1251;20842;-77
2023/08/16 03:10:34;;;;;;;;;31.00;29.50;;;;;24.90;49.29;101030.70;110100;1265;18602;-75
2023/08/16 03:13:00;;;;;;;;;34.00;34.00;;;;;24.90;49.36;101023.53;110087;1250;20131;-75
2023/08/16 03:15:26;;;;;;;;;31.00;30.50;;;;;24.92;49.50;101025.64;110032;1250;20861;-76
2023/08/16 03:17:52;;;;;;;;;33.50;31.00;;;;;24.92;49.53;101029.92;110018;1250;20061;-76
2023/08/16 03:20:18;;;;;;;;;34.00;30.00;;;;;24.89;49.71;101032.41;109958;1259;20197;-75
2023/08/16 03:22:44;;;;;;;;;33.00;32.00;;;;;24.83;49.78;101030.23;109958;1266;19435;-76
2023/08/16 03:25:10;;;;;;;;;34.00;33.50;;;;;24.86;49.78;101025.55;110027;1250;18949;-75
2023/08/16 03:27:36;;;;;;;;;30.50;30.00;;;;;24.87;49.56;101030.80;110063;1266;18918;-76
2023/08/16 03:30:02;;;;;;;;;31.00;30.00;;;;;24.89;49.73;101032.04;110044;1266;19463;-75
2023/08/16 03:32:28;;;;;;;;;32.50;30.50;;;;;24.89;49.79;101037.52;110008;1250;20353;-77
2023/08/16 03:34:55;;;;;;;;;31.00;30.00;;;;;24.89;49.70;101038.89;109960;1265;18796;-76
2023/08/16 03:37:21;;;;;;;;;31.00;30.00;;;;;24.87;49.83;101042.95;109955;1265;19383;-77
2023/08/16 03:39:47;;;;;;;;;39.00;35.00;;;;;24.87;49.81;101045.81;110016;1250;22495;-77
2023/08/16 03:42:13;;;;;;;;;34.00;31.00;;;;;24.83;49.79;101044.27;110017;1266;22824;-77
2023/08/16 03:44:39;;;;;;;;;34.00;30.50;;;;;24.83;50.11;101043.98;109962;1266;19237;-74
2023/08/16 03:47:05;;;;;;;;;40.00;37.00;;;;;24.85;50.11;101041.66;110034;1265;18615;-74
2023/08/16 03:49:31;;;;;;;;;36.00;35.00;;;;;24.86;49.96;101041.71;110037;1250;21213;-76
2023/08/16 03:51:57;;;;;;;;;34.50;34.00;;;;;24.83;50.19;101043.22;110057;1251;22987;-76
2023/08/16 03:54:23;;;;;;;;;42.00;35.00;;;;;24.83;50.36;101042.90;110038;1266;21087;-75
2023/08/16 03:56:49;;;;;;;;;32.00;30.50;;;;;24.85;50.22;101043.80;110027;1251;20106;-78
2023/08/16 03:59:15;;;;;;;;;38.00;35.50;;;;;24.86;50.28;101039.58;110001;1251;20748;-76
2023/08/16 04:01:41;;;;;;;;;39.00;35.00;;;;;24.81;50.59;101037.55;110073;1266;18642;-75
2023/08/16 04:04:07;;;;;;;;;34.50;30.00;;;;;24.81;50.57;101043.46;110077;1266;18770;-75
2023/08/16 04:06:33;;;;;;;;;32.00;31.00;;;;;24.82;50.62;101046.64;110041;1250;22312;-77
2023/08/16 04:08:59;;;;;;;;;39.00;35.00;;;;;24.82;50.67;101044.01;109991;1251;20164;-76
2023/08/16 04:11:25;;;;;;;;;35.50;33.00;;;;;24.82;50.76;101046.64;110016;1250;18689;-77
2023/08/16 04:13:51;;;;;;;;;32.00;30.50;;;;;24.86;50.61;101051.30;110005;1265;19347;-76
2023/08/16 04:16:17;;;;;;;;;34.00;32.00;;;;;24.85;50.58;101056.84;110006;1250;21312;-77
2023/08/16 04:18:43;;;;;;;;;35.00;31.00;;;;;24.86;50.53;101056.23;110015;1251;20568;-76
2023/08/16 04:21:09;;;;;;;;;35.00;34.00;;;;;24.82;50.80;101057.16;110001;1250;19358;-76
2023/08/16 04:23:35;;;;;;;;;36.00;34.00;;;;;24.84;50.90;101055.88;109991;1259;19954;-76
2023/08/16 04:26:01;;;;;;;;;37.00;31.00;;;;;24.86;50.59;101050.77;110025;1250;20146;-75
2023/08/16 04:28:27;;;;;;;;;35.67;34.00;;;;;24.83;50.67;101051.66;109984;1265;19377;-75
2023/08/16 04:30:53;;;;;;;;;33.00;31.00;;;;;24.84;50.59;101046.61;110046;1250;20765;-75
2023/08/16 04:33:19;;;;;;;;;34.00;32.00;;;;;24.83;50.50;101048.75;110064;1265;18705;-75
2023/08/16 04:35:45;;;;;;;;;38.00;34.00;;;;;24.82;50.63;101052.98;110038;1250;20790;-76
2023/08/16 04:38:11;;;;;;;;;32.50;29.00;;;;;24.81;50.92;101055.69;110065;1259;19878;-75
2023/08/16 04:40:38;;;;;;;;;36.33;33.00;;;;;24.81;50.95;101057.77;110016;1251;20233;-75
2023/08/16 04:43:04;;;;;;;;;34.00;33.00;;;;;24.85;50.76;101063.42;110015;1250;21571;-75
2023/08/16 04:45:30;;;;;;;;;33.00;30.50;;;;;24.87;50.87;101063.13;109970;1265;18581;-76
2023/08/16 04:47:56;;;;;;;;;39.00;34.00;;;;;24.89;50.81;101064.36;109984;1265;18911;-76
2023/08/16 04:50:22;;;;;;;;;36.00;34.50;;;;;24.60;51.63;101065.86;110006;1250;19443;-78
2023/08/16 04:52:48;;;;;;;;;41.00;37.00;;;;;24.08;53.30;101067.70;110056;1266;18642;-78
2023/08/16 04:55:15;;;;;;;;;39.00;37.00;;;;;23.83;54.64;101064.02;110018;1251;21812;-77
2023/08/16 04:57:41;;;;;;;;;37.00;35.50;;;;;23.95;54.24;101067.18;110002;1251;20614;-75
2023/08/16 05:00:08;;;;;;;;;36.50;32.50;;;;;24.02;54.38;101061.16;109951;1260;19852;-77
2023/08/16 05:02:34;;;;;;;;;39.33;34.67;;;;;24.04;54.50;101062.63;109991;1250;22693;-77
2023/08/16 05:05:00;;;;;;;;;41.00;37.00;;;;;24.19;53.64;101059.46;109992;1251;21109;-75
2023/08/16 05:07:27;;;;;;;;;38.00;34.00;;;;;24.30;53.21;101060.77;110061;1250;18617;-75
2023/08/16 05:09:53;;;;;;;;;37.50;36.00;;;;;24.31;53.39;101067.92;109969;1250;20150;-74
2023/08/16 05:12:19;;;;;;;;;32.00;31.00;;;;;24.35;53.17;101061.98;109950;1250;20773;-76
2023/08/16 05:14:45;;;;;;;;;32.00;31.00;;;;;24.35;53.24;101062.81;110014;1251;20152;-77
2023/08/16 05:17:11;;;;;;;;;31.00;29.00;;;;;24.32;53.35;101058.67;109990;1260;20016;-77
2023/08/16 05:19:37;;;;;;;;;30.67;30.33;;;;;24.46;52.99;101054.16;109965;1260;20772;-76
2023/08/16 05:22:03;;;;;;;;;32.00;30.00;;;;;24.56;52.69;101055.60;109985;1265;20817;-76
2023/08/16 05:24:29;;;;;;;;;102.00;74.00;;;;;24.60;52.81;101052.33;109999;1266;22324;-76
2023/08/16 05:26:55;;;;;;;;;245.00;171.00;;;;;24.62;53.15;101052.09;110004;1265;19385;-78
2023/08/16 05:29:21;;;;;;;;;314.50;236.00;;;;;24.76;52.88;101053.48;110008;1251;18935;-77
2023/08/16 05:31:47;;;;;;;;;308.00;229.33;;;;;24.84;52.82;101052.30;109945;1260;20363;-77
2023/08/16 05:34:16;;;;;;;;;135.00;104.00;;;;;24.90;52.70;101046.94;110010;1251;21909;-78
2023/08/16 05:36:42;;;;;;;;;197.00;151.50;;;;;24.93;52.39;101044.76;110033;1254;22442;-78
2023/08/16 05:39:09;;;;;;;;;127.50;95.50;;;;;24.96;52.84;101047.48;110013;1266;20081;-77
2023/08/16 05:41:35;;;;;;;;;114.00;84.00;;;;;25.03;52.63;101048.46;109975;1250;20911;-76
2023/08/16 05:44:01;;;;;;;;;;;;;;;25.09;52.58;101047.23;109945;1260;22357;-75
2023/08/16 05:46:27;;;;;;;;;92.00;63.00;;;;;25.05;53.06;101046.68;109978;1259;22786;-76
2023/08/16 05:48:53;;;;;;;;;79.00;58.00;;;;;25.04;53.08;101045.98;109982;1251;21093;-76
2023/08/16 05:51:19;;;;;;;;;70.00;52.00;;;;;25.10;52.84;101047.11;109985;1266;18692;-75
2023/08/16 05:53:45;;;;;;;;;63.00;48.00;;;;;25.14;52.59;101052.73;109950;1260;18818;-77
2023/08/16 05:56:11;;;;;;;;;49.00;40.00;;;;;25.13;52.58;101047.58;110014;1266;19518;-75
2023/08/16 05:58:37;;;;;;;;;50.50;42.00;;;;;25.10;52.52;101046.08;110005;1250;22210;-75
2023/08/16 06:01:03;;;;;;;;;37.00;34.00;;;;;25.13;52.31;101046.59;109966;1250;21339;-75
2023/08/16 06:03:30;;;;;;;;;42.00;34.50;;;;;25.15;52.30;101047.99;109974;1266;19733;-75
2023/08/16 06:05:56;;;;;;;;;38.00;33.00;;;;;25.20;52.23;101052.32;109938;1265;18578;-77
2023/08/16 06:08:22;;;;;;;;;35.00;31.00;;;;;25.25;52.05;101051.61;109993;1251;20137;-75
2023/08/16 06:10:48;;;;;;;;;30.00;26.50;;;;;25.31;52.00;101049.44;109960;1260;19447;-75
2023/08/16 06:13:14;;;;;;;;;29.50;26.00;;;;;25.40;51.83;101053.09;109974;1251;20007;-77
2023/08/16 06:15:40;;;;;;;;;26.00;25.00;;;;;25.38;52.11;101057.29;110001;1250;21841;-76
2023/08/16 06:18:06;;;;;;;;;25.50;24.00;;;;;25.49;52.23;101054.63;110006;1266;19684;-76
2023/08/16 06:20:32;;;;;;;;;24.50;21.50;;;;;25.51;52.20;101053.67;110028;1266;19936;-78
2023/08/16 06:22:58;;;;;;;;;25.00;21.00;;;;;25.54;52.04;101060.70;110015;1251;20198;-76
2023/08/16 06:25:25;;;;;;;;;25.00;21.00;;;;;25.56;52.17;101058.27;110023;1251;22011;-76
2023/08/16 06:27:51;;;;;;;;;21.50;21.50;;;;;25.55;52.16;101058.23;110079;1250;21317;-75
2023/08/16 06:30:17;;;;;;;;;22.00;21.00;;;;;25.55;52.23;101055.48;110072;1251;22866;-76
2023/08/16 06:32:43;;;;;;;;;21.50;20.00;;;;;25.63;51.92;101056.48;110016;1265;19533;-76
2023/08/16 06:35:10;;;;;;;;;23.50;22.00;;;;;25.67;51.81;101057.04;109969;1266;21907;-76
2023/08/16 06:37:36;;;;;;;;;23.00;21.00;;;;;25.73;51.73;101057.23;109955;1265;18882;-75
2023/08/16 06:40:04;;;;;;;;;21.00;20.00;;;;;25.78;51.52;101056.67;109939;1266;22001;-78
2023/08/16 06:42:31;;;;;;;;;22.00;21.00;;;;;25.77;51.36;101058.55;110014;1251;22354;-77
2023/08/16 06:44:58;;;;;;;;;18.00;17.00;;;;;25.82;51.38;101057.77;110037;1265;20604;-77
2023/08/16 06:47:24;;;;;;;;;20.00;20.00;;;;;25.88;51.62;101063.89;110040;1251;21306;-78
2023/08/16 06:49:50;;;;;;;;;23.00;22.00;;;;;25.92;51.41;101064.54;110043;1266;20024;-75
2023/08/16 06:52:16;;;;;;;;;18.50;17.50;;;;;25.96;51.62;101067.66;110001;1266;21874;-76
2023/08/16 06:54:44;;;;;;;;;21.00;19.00;;;;;26.01;51.48;101065.92;109977;1265;20930;-72
2023/08/16 06:57:11;;;;;;;;;16.00;16.00;;;;;26.02;51.64;101064.61;109978;1265;18577;-76
2023/08/16 06:59:38;;;;;;;;;17.00;17.00;;;;;26.02;51.91;101066.93;109968;1266;22319;-75
2023/08/16 07:02:14;;;;;;;;;17.00;16.00;;;;;26.06;52.05;101066.16;109943;1265;19726;-76
2023/08/16 07:04:42;;;;;;;;;14.00;14.00;;;;;26.07;52.50;101063.95;109995;1250;19392;-74
2023/08/16 07:07:09;;;;;;;;;14.00;14.00;;;;;26.09;52.61;101064.52;110019;1266;20868;-75
2023/08/16 07:09:35;;;;;;;;;17.00;14.00;;;;;26.08;52.73;101068.59;109951;1265;20735;-77
2023/08/16 07:12:01;;;;;;;;;14.00;13.00;;;;;26.11;52.58;101063.21;109970;1265;19834;-75
2023/08/16 07:14:28;;;;;;;;;12.33;12.33;;;;;26.11;52.85;101063.27;110012;1251;20256;-75
2023/08/16 07:16:55;;;;;;;;;12.00;11.00;;;;;26.11;52.78;101066.08;110051;1250;19493;-77
2023/08/16 07:19:22;;;;;;;;;11.00;9.00;;;;;26.17;52.72;101067.24;110060;1266;19892;-75
2023/08/16 07:21:48;;;;;;;;;14.00;11.00;;;;;26.12;53.32;101064.73;110007;1250;19291;-75
2023/08/16 07:24:14;;;;;;;;;12.00;9.00;;;;;26.04;53.52;101066.84;109969;1250;22002;-76
2023/08/16 07:26:40;;;;;;;;;8.00;8.00;;;;;26.00;53.80;101065.94;109951;1265;22715;-74
2023/08/16 07:29:07;;;;;;;;;11.00;9.00;;;;;25.98;53.71;101070.42;109965;1259;18423;-76
2023/08/16 07:31:33;;;;;;;;;11.00;8.00;;;;;25.97;53.86;101072.15;109851;1259;170259;-75
2023/08/16 07:33:59;;;;;;;;;9.50;8.50;;;;;26.00;53.69;101076.33;110041;1250;21127;-77
2023/08/16 07:36:27;;;;;;;;;9.00;9.00;;;;;25.98;53.81;101077.71;110072;1250;18176;-76
2023/08/16 07:38:53;;;;;;;;;8.00;8.00;;;;;25.99;53.83;101079.09;110040;1251;20935;-74
2023/08/16 07:41:19;;;;;;;;;8.00;8.00;;;;;26.00;53.67;101077.41;110006;1251;19571;-75
2023/08/16 07:43:45;;;;;;;;;9.00;8.00;;;;;26.01;53.51;101078.55;109993;1266;21076;-76
2023/08/16 07:46:11;;;;;;;;;8.50;8.50;;;;;25.98;53.46;101079.16;109993;1250;20845;-77
2023/08/16 07:48:37;;;;;;;;;8.00;7.50;;;;;26.00;53.56;101073.67;109975;1250;19688;-75
2023/08/16 07:51:03;;;;;;;;;6.00;6.00;;;;;25.98;53.58;101078.39;109948;1259;20094;-74
2023/08/16 07:53:29;;;;;;;;;6.00;6.00;;;;;25.99;53.42;101079.52;109976;1251;20836;-74
2023/08/16 07:55:55;;;;;;;;;8.00;6.00;;;;;25.96;53.78;101082.59;109938;1251;18461;-74
2023/08/16 07:58:21;;;;;;;;;9.00;7.00;;;;;26.01;53.43;101085.80;109992;1250;20130;-75
2023/08/16 08:00:48;;;;;;;;;7.00;7.00;;;;;26.02;53.20;101083.64;109971;1251;20898;-74
2023/08/16 08:03:14;;;;;;;;;6.00;6.00;;;;;26.02;53.41;101084.06;109974;1251;18302;-74
2023/08/16 08:05:40;;;;;;;;;7.33;7.00;;;;;26.02;53.26;101082.58;109980;1265;20094;-73
2023/08/16 08:08:07;;;;;;;;;5.00;5.00;;;;;26.01;53.28;101083.04;110031;1265;19376;-74
2023/08/16 08:10:33;;;;;;;;;6.00;4.00;;;;;26.02;53.05;101083.90;110020;1251;19890;-73
2023/08/16 08:12:59;;;;;;;;;6.33;6.00;;;;;26.03;53.19;101087.56;110034;1250;18642;-74
2023/08/16 08:15:25;;;;;;;;;6.00;6.00;;;;;26.02;53.19;101084.93;110025;1251;20780;-74
2023/08/16 08:17:51;;;;;;;;;5.00;4.00;;;;;26.04;52.89;101080.89;110032;1266;18430;-74
2023/08/16 08:20:18;;;;;;;;;4.00;4.00;;;;;26.05;52.91;101078.90;109977;1266;19190;-74
2023/08/16 08:22:44;;;;;;;;;3.00;3.00;;;;;26.05;53.00;101078.85;109990;1261;20771;-74
2023/08/16 08:25:10;;;;;;;;;4.00;4.00;;;;;26.06;52.71;101077.56;109991;1265;18443;-74
2023/08/16 08:27:36;;;;;;;;;4.00;4.00;;;;;26.06;52.82;101079.83;110004;1267;22325;-74
2023/08/16 08:30:02;;;;;;;;;4.33;4.33;;;;;26.07;52.82;101082.77;110003;1265;20867;-73
2023/08/16 08:32:28;;;;;;;;;4.00;4.00;;;;;26.07;52.72;101080.85;110021;1250;18481;-75
2023/08/16 08:34:54;;;;;;;;;7.00;4.50;;;;;26.08;52.79;101081.34;110058;1253;20318;-74
2023/08/16 08:37:20;;;;;;;;;4.00;4.00;;;;;26.07;52.77;101084.69;110016;1250;21840;-74
2023/08/16 08:39:47;;;;;;;;;3.00;3.00;;;;;26.09;52.63;101085.77;110016;1251;20814;-74
2023/08/16 08:42:13;;;;;;;;;4.00;3.00;;;;;26.08;52.69;101084.52;110064;1250;20117;-75
2023/08/16 08:44:39;;;;;;;;;4.00;4.00;;;;;26.09;52.75;101085.11;109981;1266;19508;-74
2023/08/16 08:47:06;;;;;;;;;4.00;3.00;;;;;26.08;52.60;101087.97;109981;1250;19577;-75
2023/08/16 08:49:32;;;;;;;;;3.00;3.00;;;;;26.08;52.71;101090.71;110008;1266;20047;-73
2023/08/16 08:51:58;;;;;;;;;3.00;2.00;;;;;26.07;52.74;101091.17;109984;1266;20900;-73
2023/08/16 08:54:24;;;;;;;;;2.00;2.00;;;;;26.07;52.73;101090.35;110002;1265;19906;-74
2023/08/16 08:56:50;;;;;;;;;3.00;3.00;;;;;26.09;52.64;101084.95;110024;1266;20739;-73
2023/08/16 08:59:16;;;;;;;;;3.00;3.00;;;;;26.07;52.66;101086.85;110026;1266;19410;-73
2023/08/16 09:01:42;;;;;;;;;3.00;3.00;;;;;26.06;52.59;101086.80;109977;1250;19644;-73
2023/08/16 09:04:08;;;;;;;;;2.00;2.00;;;;;26.06;52.77;101088.55;110029;1266;18528;-73
2023/08/16 09:06:35;;;;;;;;;3.00;2.00;;;;;26.07;52.66;101088.98;110025;1266;20927;-73
2023/08/16 09:09:01;;;;;;;;;3.00;3.00;;;;;26.06;52.87;101085.64;110027;1259;18675;-73
2023/08/16 09:11:27;;;;;;;;;2.00;2.00;;;;;26.07;52.72;101078.77;110006;1251;20127;-73
2023/08/16 09:13:53;;;;;;;;;3.00;3.00;;;;;26.08;52.63;101083.59;109993;1251;22710;-74
2023/08/16 09:16:20;;;;;;;;;4.00;3.50;;;;;26.06;52.77;101081.36;109971;1266;18921;-74
2023/08/16 09:18:47;;;;;;;;;3.00;3.00;;;;;26.06;52.71;101079.56;110032;1260;21508;-74
2023/08/16 09:21:14;;;;;;;;;3.00;3.00;;;;;26.06;52.59;101083.50;110057;1251;20826;-73
2023/08/16 09:23:40;;;;;;;;;6.00;4.00;;;;;26.07;52.48;101085.08;110036;1251;19635;-74
2023/08/16 09:26:06;;;;;;;;;3.00;2.00;;;;;26.07;52.74;101084.33;109999;1266;21211;-78
2023/08/16 09:28:32;;;;;;;;;3.00;3.00;;;;;26.07;52.55;101088.43;110007;1266;19568;-75
2023/08/16 09:30:58;;;;;;;;;3.00;3.00;;;;;26.09;52.57;101091.91;110006;1251;19570;-74
2023/08/16 09:33:24;;;;;;;;;2.50;2.50;;;;;26.07;52.67;101086.79;109995;1265;20415;-74
2023/08/16 09:35:51;;;;;;;;;6.00;4.00;;;;;26.07;52.81;101085.85;110005;1251;22068;-74
2023/08/16 09:38:17;;;;;;;;;2.00;2.00;;;;;26.05;52.86;101082.42;109969;1259;20733;-74
2023/08/16 09:40:43;;;;;;;;;3.00;3.00;;;;;26.07;52.92;101078.83;109992;1266;18607;-74
2023/08/16 09:43:09;;;;;;;;;2.67;2.67;;;;;26.09;53.02;101080.22;110005;1250;20766;-78
2023/08/16 09:45:36;;;;;;;;;4.00;4.00;;;;;26.12;53.32;101083.73;109990;1250;20824;-76
2023/08/16 09:48:04;;;;;;;;;3.00;3.00;;;;;26.15;53.45;101080.17;110029;1266;22968;-77
2023/08/16 09:50:30;;;;;;;;;2.00;2.00;;;;;26.18;53.63;101084.76;110039;1266;19548;-76
2023/08/16 09:52:56;;;;;;;;;3.00;3.00;;;;;26.17;53.65;101084.94;110037;1251;19747;-75
2023/08/16 09:55:23;;;;;;;;;6.00;5.00;;;;;26.15;53.63;101086.49;110003;1266;18781;-77
2023/08/16 09:57:49;;;;;;;;;2.00;2.00;;;;;26.11;53.63;101090.89;109972;1265;22168;-75
2023/08/16 10:00:16;;;;;;;;;2.50;2.50;;;;;26.13;53.93;101088.99;109992;1265;18176;-75
2023/08/16 10:02:42;;;;;;;;;2.33;2.33;;;;;26.14;53.92;101086.45;110015;1266;21593;-75
2023/08/16 10:05:08;;;;;;;;;2.50;2.00;;;;;26.14;53.90;101087.71;110018;1266;19632;-75
2023/08/16 10:07:34;;;;;;;;;3.00;3.00;;;;;26.14;54.07;101084.60;110028;1250;20809;-74
2023/08/16 10:10:01;;;;;;;;;4.50;3.00;;;;;26.11;53.88;101086.66;110043;1266;18624;-74
2023/08/16 10:12:27;;;;;;;;;3.00;3.00;;;;;26.10;54.00;101089.81;109989;1266;20903;-74
2023/08/16 10:14:54;;;;;;;;;2.00;2.00;;;;;26.11;53.88;101086.17;110032;1266;18230;-74
2023/08/16 10:17:20;;;;;;;;;2.00;2.00;;;;;26.10;53.85;101088.00;109998;1266;20067;-75
2023/08/16 10:19:47;;;;;;;;;2.00;2.00;;;;;26.10;53.98;101084.98;109988;1251;21994;-75
2023/08/16 10:22:13;;;;;;;;;3.00;3.00;;;;;26.09;53.76;101080.00;110039;1265;18570;-75
2023/08/16 10:24:39;;;;;;;;;2.00;2.00;;;;;26.10;54.02;101083.89;110013;1250;20625;-75
2023/08/16 10:27:05;;;;;;;;;3.00;3.00;;;;;26.10;53.84;101084.98;110008;1250;20939;-75
2023/08/16 10:29:31;;;;;;;;;2.00;2.00;;;;;26.08;53.82;101086.71;110013;1266;18482;-75
2023/08/16 10:31:57;;;;;;;;;2.00;2.00;;;;;26.06;53.92;101086.31;109998;1250;19984;-75
2023/08/16 10:34:23;;;;;;;;;2.00;2.00;;;;;26.05;53.96;101087.59;110026;1251;20776;-75
2023/08/16 10:36:49;;;;;;;;;1.00;1.00;;;;;26.07;53.96;101083.00;110006;1266;19939;-75
2023/08/16 10:39:16;;;;;;;;;83.00;63.00;;;;;26.16;53.82;101085.98;109979;1251;22681;-75
2023/08/16 10:41:42;;;;;;;;;96.00;78.00;;;;;26.27;53.62;101087.78;109989;1251;20792;-75
2023/08/16 10:44:08;;;;;;;;;96.00;75.00;;;;;26.33;53.48;101085.96;109999;1266;20171;-74
2023/08/16 10:46:35;;;;;;;;;116.00;85.00;;;;;26.25;53.69;101089.23;110022;1266;21955;-75
2023/08/16 10:49:01;;;;;;;;;113.00;90.00;;;;;26.19;53.68;101089.46;110032;1251;20816;-74
2023/08/16 10:51:27;;;;;;;;;99.50;74.50;;;;;26.19;53.74;101088.91;109996;1266;22693;-76
2023/08/16 10:53:53;;;;;;;;;85.00;60.50;;;;;26.20;53.93;101089.39;110008;1266;18727;-75
2023/08/16 10:56:19;;;;;;;;;76.00;55.00;;;;;26.23;53.90;101090.66;109999;1266;20746;-74
2023/08/16 10:58:45;;;;;;;;;61.00;48.00;;;;;26.31;53.81;101089.83;110044;1259;19900;-74
2023/08/16 11:01:11;;;;;;;;;68.00;48.00;;;;;26.42;53.50;101087.79;110008;1251;19869;-76